Time;durP1;ratioP1;P1;durP2;ratioP2;P2;SDS_P1;SDS_P2;PMS_P1;PMS_P2;Temp;Humidity;BMP_temperature;BMP_pressure;BME280_temperature;BME280_humidity;BME280_pressure;Samples;Min_cycle;Max_cycle;Signal;HPM_P1;HPM_P2
2024/01/09 00:01:24;;;;;;;;;;;-7.90;99.90;;;;;;4948577;29;19921;-90
2024/01/09 00:03:50;;;;;;;;;;;-7.90;99.90;;;;;;4911520;29;20091;-91
2024/01/09 00:06:15;;;;;;;;;;;-7.80;99.90;;;;;;4942739;29;19919;-90
2024/01/09 00:08:41;;;;;;;;;;;-7.80;99.90;;;;;;4940471;29;19990;-91
2024/01/09 00:11:07;;;;;;;;;;;-7.80;99.90;;;;;;4944040;29;19946;-90
2024/01/09 00:13:32;;;;;;;;;;;-7.80;99.90;;;;;;4945612;29;19933;-91
2024/01/09 00:15:58;;;;;;;;;;;-7.80;99.90;;;;;;4940210;29;19915;-91
2024/01/09 00:18:23;;;;;;;;;;;-7.80;99.90;;;;;;4934836;29;19916;-91
2024/01/09 00:21:23;;;;;;;;;;;-7.90;99.90;;;;;;4930599;29;19914;-90
2024/01/09 00:23:49;;;;;;;;;;;-7.80;99.90;;;;;;4921305;29;19918;-91
2024/01/09 00:26:30;;;;;;;;;;;-7.80;99.90;;;;;;4918241;29;20278;-91
2024/01/09 00:28:56;;;;;;;;;;;-7.80;99.90;;;;;;4926056;29;19938;-91
2024/01/09 00:31:21;;;;;;;;;;;-7.80;99.90;;;;;;4939601;29;19911;-91
2024/01/09 00:33:47;;;;;;;;;;;-7.80;99.90;;;;;;4938594;29;19918;-90
2024/01/09 00:36:12;;;;;;;;;;;-7.80;99.90;;;;;;4938764;29;19922;-90
2024/01/09 00:38:38;;;;;;;;;;;-7.80;99.90;;;;;;4923061;29;19915;-90
2024/01/09 00:41:04;;;;;;;;;;;-7.80;99.90;;;;;;4939093;29;19921;-91
2024/01/09 00:43:29;;;;;;;;;;;-7.80;99.90;;;;;;4938562;29;20064;-91
2024/01/09 00:45:55;;;;;;;;;;;-7.80;99.90;;;;;;4938874;29;19923;-90
2024/01/09 00:48:20;;;;;;;;;;;-7.80;99.90;;;;;;4939786;29;19915;-91
2024/01/09 00:50:46;;;;;;;;;;;-7.80;99.90;;;;;;4939378;29;19962;-90
2024/01/09 00:53:11;;;;;;;;;;;-7.80;99.90;;;;;;4910792;29;20372;-90
2024/01/09 00:55:37;;;;;;;;;;;-7.70;99.90;;;;;;4907455;29;20394;-91
2024/01/09 00:58:02;;;;;;;;;;;-7.70;99.90;;;;;;4939447;29;19946;-90
2024/01/09 01:00:28;;;;;;;;;;;-7.70;99.90;;;;;;4907831;29;19922;-91
2024/01/09 01:02:54;;;;;;;;;;;-7.70;99.90;;;;;;4946428;29;19899;-90
2024/01/09 01:05:20;;;;;;;;;;;-7.80;99.90;;;;;;4907830;29;19923;-91
2024/01/09 01:07:45;;;;;;;;;;;-7.80;99.90;;;;;;4938845;29;20349;-91
2024/01/09 01:10:14;;;;;;;;;;;-7.80;99.90;;;;;;4906703;29;19919;-91
2024/01/09 01:12:40;;;;;;;;;;;-7.80;99.90;;;;;;4939324;29;20347;-90
2024/01/09 01:15:06;;;;;;;;;;;-7.70;99.90;;;;;;4907904;29;19974;-90
2024/01/09 01:17:31;;;;;;;;;;;-7.70;99.90;;;;;;4941646;29;19920;-90
2024/01/09 01:20:03;;;;;;;;;;;-7.70;99.90;;;;;;4907919;29;19915;-91
2024/01/09 01:22:29;;;;;;;;;;;-7.70;99.90;;;;;;4933026;28;19915;-90
2024/01/09 01:24:54;;;;;;;;;;;-7.70;99.90;;;;;;4924640;29;19977;-92
2024/01/09 01:27:20;;;;;;;;;;;-7.80;99.90;;;;;;4938150;29;20386;-91
2024/01/09 01:29:45;;;;;;;;;;;-7.80;99.90;;;;;;4926310;29;19918;-91
2024/01/09 01:32:11;;;;;;;;;;;-7.80;99.90;;;;;;4937291;29;19922;-90
2024/01/09 01:34:37;;;;;;;;;;;-7.80;99.90;;;;;;4940374;29;19959;-91
2024/01/09 01:37:02;;;;;;;;;;;-7.80;99.90;;;;;;4938840;29;19915;-90
2024/01/09 01:39:28;;;;;;;;;;;-7.80;99.90;;;;;;4943261;29;20018;-91
2024/01/09 01:41:54;;;;;;;;;;;-7.70;99.90;;;;;;4939135;29;19927;-90
2024/01/09 01:44:20;;;;;;;;;;;-7.70;99.90;;;;;;4906943;29;19927;-90
2024/01/09 01:46:46;;;;;;;;;;;-7.70;99.90;;;;;;4938286;29;19966;-91
2024/01/09 01:49:12;;;;;;;;;;;-7.70;99.90;;;;;;4906321;29;19933;-91
2024/01/09 01:51:39;;;;;;;;;;;-7.70;99.90;;;;;;4938702;29;19915;-92
2024/01/09 01:54:05;;;;;;;;;;;-7.80;99.90;;;;;;4914317;29;20379;-91
2024/01/09 01:56:31;;;;;;;;;;;-7.80;99.90;;;;;;4943372;29;19983;-91
2024/01/09 01:58:56;;;;;;;;;;;-7.80;99.90;;;;;;4902530;29;20397;-90
2024/01/09 02:01:22;;;;;;;;;;;-7.80;99.90;;;;;;4908493;29;19981;-87
2024/01/09 02:03:47;;;;;;;;;;;-7.80;99.90;;;;;;4911649;29;20544;-90
2024/01/09 02:06:14;;;;;;;;;;;-7.80;99.90;;;;;;4920899;29;19915;-91
2024/01/09 02:09:07;;;;;;;;;;;-7.70;99.90;;;;;;4938384;29;19915;-91
2024/01/09 02:11:34;;;;;;;;;;;-7.70;99.90;;;;;;4926707;29;20389;-90
2024/01/09 02:14:00;;;;;;;;;;;-7.70;99.90;;;;;;4936113;29;19918;-91
2024/01/09 02:16:25;;;;;;;;;;;-7.70;99.90;;;;;;4908074;29;20005;-91
2024/01/09 02:18:51;;;;;;;;;;;-7.70;99.90;;;;;;4938226;29;19914;-91
2024/01/09 02:21:50;;;;;;;;;;;-7.70;99.90;;;;;;4914863;29;19919;-91
2024/01/09 02:24:17;;;;;;;;;;;-7.70;99.90;;;;;;4936118;29;20400;-91
2024/01/09 02:26:46;;;;;;;;;;;-7.80;99.90;;;;;;4938364;29;19922;-91
2024/01/09 02:29:15;;;;;;;;;;;-7.70;99.90;;;;;;4938679;29;19997;-91
2024/01/09 02:31:40;;;;;;;;;;;-7.70;99.90;;;;;;4944767;29;19915;-91
2024/01/09 02:34:06;;;;;;;;;;;-7.70;99.90;;;;;;4938159;29;19970;-92
2024/01/09 02:36:32;;;;;;;;;;;-7.70;99.90;;;;;;4937927;29;20367;-91
2024/01/09 02:38:58;;;;;;;;;;;-7.60;99.90;;;;;;4938003;29;19915;-91
2024/01/09 02:41:23;;;;;;;;;;;-7.60;99.90;;;;;;4906716;29;19934;-91
2024/01/09 02:43:49;;;;;;;;;;;-7.60;99.90;;;;;;4937771;29;19915;-91
2024/01/09 02:46:15;;;;;;;;;;;-7.60;99.90;;;;;;4930428;29;19919;-91
2024/01/09 02:48:40;;;;;;;;;;;-7.60;99.90;;;;;;4937659;29;19958;-90
2024/01/09 02:51:06;;;;;;;;;;;-7.70;99.90;;;;;;4906427;29;19915;-89
2024/01/09 02:53:31;;;;;;;;;;;-7.70;99.90;;;;;;4938089;29;19923;-91
2024/01/09 02:55:57;;;;;;;;;;;-7.70;99.90;;;;;;4922377;29;19968;-91
2024/01/09 02:58:22;;;;;;;;;;;-7.60;99.90;;;;;;4938805;29;20323;-91
2024/01/09 03:00:48;;;;;;;;;;;-7.60;99.90;;;;;;4938157;29;19957;-91
2024/01/09 03:03:13;;;;;;;;;;;-7.50;99.90;;;;;;4943506;29;19915;-90
2024/01/09 03:05:39;;;;;;;;;;;-7.50;99.90;;;;;;4930683;29;19915;-90
2024/01/09 03:08:05;;;;;;;;;;;-7.50;99.90;;;;;;4941286;29;19930;-90
2024/01/09 03:10:32;;;;;;;;;;;-7.50;99.90;;;;;;4915379;29;19903;-91
2024/01/09 03:12:57;;;;;;;;;;;-7.50;99.90;;;;;;4941173;29;19941;-90
2024/01/09 03:15:23;;;;;;;;;;;-7.50;99.90;;;;;;4933315;29;20236;-91
2024/01/09 03:17:48;;;;;;;;;;;-7.60;99.90;;;;;;4924859;29;19915;-91
2024/01/09 03:20:14;;;;;;;;;;;-7.60;99.90;;;;;;4908738;29;20066;-91
2024/01/09 03:22:39;;;;;;;;;;;-7.70;99.90;;;;;;4940273;29;20010;-91
2024/01/09 03:25:11;;;;;;;;;;;-7.70;99.90;;;;;;4908503;29;19914;-91
2024/01/09 03:27:37;;;;;;;;;;;-7.70;99.90;;;;;;4940921;29;19982;-90
2024/01/09 03:30:02;;;;;;;;;;;-7.70;99.90;;;;;;4910160;29;19919;-91
2024/01/09 03:32:28;;;;;;;;;;;-7.70;99.90;;;;;;4940747;29;19942;-91
2024/01/09 03:34:54;;;;;;;;;;;-7.60;99.90;;;;;;4940983;29;19938;-91
2024/01/09 03:37:19;;;;;;;;;;;-7.70;99.90;;;;;;4940419;29;19922;-90
2024/01/09 03:39:45;;;;;;;;;;;-7.70;99.90;;;;;;4940974;29;20058;-90
2024/01/09 03:42:11;;;;;;;;;;;-7.70;99.90;;;;;;4940366;29;19922;-90
2024/01/09 03:44:36;;;;;;;;;;;-7.70;99.90;;;;;;4924370;29;19919;-90
2024/01/09 03:47:02;;;;;;;;;;;-7.70;99.90;;;;;;4939923;29;19915;-91
2024/01/09 03:49:28;;;;;;;;;;;-7.70;99.90;;;;;;4908075;29;19997;-90
2024/01/09 03:51:53;;;;;;;;;;;-7.70;99.90;;;;;;4940145;29;19966;-91
2024/01/09 03:54:19;;;;;;;;;;;-7.80;99.90;;;;;;4924163;29;19915;-90
2024/01/09 03:56:45;;;;;;;;;;;-7.70;99.90;;;;;;4911527;29;20291;-91
2024/01/09 03:59:11;;;;;;;;;;;-7.70;99.90;;;;;;4919985;29;19955;-90
2024/01/09 04:01:38;;;;;;;;;;;-7.80;99.90;;;;;;4923112;29;19957;-91
2024/01/09 04:04:03;;;;;;;;;;;-7.80;99.90;;;;;;4927101;29;19922;-91
2024/01/09 04:06:29;;;;;;;;;;;-7.70;99.90;;;;;;4939888;29;19915;-90
2024/01/09 04:08:55;;;;;;;;;;;-7.80;99.90;;;;;;4948288;29;20386;-90
2024/01/09 04:11:20;;;;;;;;;;;-7.80;99.90;;;;;;4926298;29;19921;-90
2024/01/09 04:13:46;;;;;;;;;;;-7.80;99.90;;;;;;4940181;29;19984;-90
2024/01/09 04:16:12;;;;;;;;;;;-7.80;99.90;;;;;;4939415;29;19925;-90
2024/01/09 04:18:38;;;;;;;;;;;-7.90;99.90;;;;;;4908040;29;20002;-91
2024/01/09 04:21:04;;;;;;;;;;;-7.90;99.90;;;;;;4946023;29;19915;-91
2024/01/09 04:23:29;;;;;;;;;;;-7.90;99.90;;;;;;4907374;29;19919;-91
2024/01/09 04:25:55;;;;;;;;;;;-7.90;99.90;;;;;;4946957;29;19954;-91
2024/01/09 04:28:20;;;;;;;;;;;-7.90;99.90;;;;;;4907457;29;19911;-90
2024/01/09 04:30:46;;;;;;;;;;;-8.00;99.90;;;;;;4938416;29;19953;-91
2024/01/09 04:33:11;;;;;;;;;;;-8.00;99.90;;;;;;4905710;29;19919;-91
2024/01/09 04:35:37;;;;;;;;;;;-7.90;99.90;;;;;;4938520;29;19926;-90
2024/01/09 04:38:02;;;;;;;;;;;-7.90;99.90;;;;;;4922516;29;19915;-91
2024/01/09 04:40:28;;;;;;;;;;;-7.90;99.90;;;;;;4938875;29;20043;-90
2024/01/09 04:42:54;;;;;;;;;;;-7.90;99.90;;;;;;4938602;29;19954;-91
2024/01/09 04:45:19;;;;;;;;;;;-7.90;99.90;;;;;;4938385;29;19915;-91
2024/01/09 04:47:45;;;;;;;;;;;-7.90;99.90;;;;;;4939216;29;19989;-91
2024/01/09 04:50:10;;;;;;;;;;;-7.90;99.90;;;;;;4940246;29;19925;-91
2024/01/09 04:52:37;;;;;;;;;;;-7.90;99.90;;;;;;4906853;29;19923;-90
2024/01/09 04:55:03;;;;;;;;;;;-7.90;99.90;;;;;;4939243;29;19922;-91
2024/01/09 04:57:29;;;;;;;;;;;-8.00;99.90;;;;;;4930101;29;19922;-92
2024/01/09 04:59:54;;;;;;;;;;;-8.00;99.90;;;;;;4938264;29;19910;-91
2024/01/09 05:02:20;;;;;;;;;;;-8.10;99.90;;;;;;4930690;29;19962;-91
2024/01/09 05:04:45;;;;;;;;;;;-8.10;99.90;;;;;;4937298;29;19921;-90
2024/01/09 05:07:11;;;;;;;;;;;-8.10;99.90;;;;;;4906394;29;19950;-91
2024/01/09 05:09:37;;;;;;;;;;;-8.10;99.90;;;;;;4947458;29;19914;-90
2024/01/09 05:12:02;;;;;;;;;;;-8.10;99.90;;;;;;4906540;29;19928;-91
2024/01/09 05:14:28;;;;;;;;;;;-8.10;99.90;;;;;;4944513;29;19919;-90
2024/01/09 05:16:53;;;;;;;;;;;-8.10;99.90;;;;;;4937949;29;20278;-91
2024/01/09 05:19:20;;;;;;;;;;;-8.20;99.90;;;;;;4938872;29;19982;-91
2024/01/09 05:21:52;;;;;;;;;;;-8.20;99.90;;;;;;4910101;29;19926;-92
2024/01/09 05:24:17;;;;;;;;;;;-8.10;99.90;;;;;;4941172;29;19938;-91
2024/01/09 05:26:43;;;;;;;;;;;-8.10;99.90;;;;;;4938931;29;19914;-89
2024/01/09 05:29:08;;;;;;;;;;;-8.10;99.90;;;;;;4938510;29;19973;-90
2024/01/09 05:31:44;;;;;;;;;;;-8.10;99.90;;;;;;4907427;29;20291;-91
2024/01/09 05:34:09;;;;;;;;;;;-8.10;99.90;;;;;;4936971;29;19919;-90
2024/01/09 05:36:35;;;;;;;;;;;-8.00;99.90;;;;;;4919096;28;20371;-90
2024/01/09 05:39:03;;;;;;;;;;;-8.00;99.90;;;;;;4937275;29;19903;-90
2024/01/09 05:41:29;;;;;;;;;;;-8.10;99.90;;;;;;4937663;29;19921;-90
2024/01/09 05:43:55;;;;;;;;;;;-8.00;99.90;;;;;;4937294;29;20507;-90
2024/01/09 05:46:20;;;;;;;;;;;-8.00;99.90;;;;;;4938142;29;19925;-90
2024/01/09 05:48:47;;;;;;;;;;;-8.00;99.90;;;;;;4936865;29;19921;-91
2024/01/09 05:51:12;;;;;;;;;;;-8.00;99.90;;;;;;4937361;29;19915;-91
2024/01/09 05:53:38;;;;;;;;;;;-8.00;99.90;;;;;;4937644;29;19919;-90
2024/01/09 05:56:04;;;;;;;;;;;-8.00;99.90;;;;;;4937910;29;19914;-90
2024/01/09 05:58:29;;;;;;;;;;;-8.10;99.90;;;;;;4940798;29;19914;-91
2024/01/09 06:00:55;;;;;;;;;;;-8.10;99.90;;;;;;4937944;29;19942;-90
2024/01/09 06:03:20;;;;;;;;;;;-8.10;99.90;;;;;;4939348;29;20045;-90
2024/01/09 06:05:46;;;;;;;;;;;-7.90;99.90;;;;;;4905487;29;20376;-90
2024/01/09 06:08:11;;;;;;;;;;;-7.90;99.90;;;;;;4937450;29;19915;-91
2024/01/09 06:10:37;;;;;;;;;;;-7.90;99.90;;;;;;4909033;29;19922;-90
2024/01/09 06:13:03;;;;;;;;;;;-7.90;99.90;;;;;;4938817;29;19926;-90
2024/01/09 06:15:28;;;;;;;;;;;-8.00;99.90;;;;;;4932571;29;19899;-90
2024/01/09 06:17:54;;;;;;;;;;;-8.10;99.90;;;;;;4944450;29;20009;-91
2024/01/09 06:20:20;;;;;;;;;;;-8.00;99.90;;;;;;4938551;29;20362;-90
2024/01/09 06:22:45;;;;;;;;;;;-8.10;99.90;;;;;;4936746;29;19923;-90
2024/01/09 06:25:13;;;;;;;;;;;-8.00;99.90;;;;;;4939969;29;19911;-90
2024/01/09 06:27:39;;;;;;;;;;;-8.10;99.90;;;;;;4937125;29;19944;-90
2024/01/09 06:30:05;;;;;;;;;;;-8.00;99.90;;;;;;4937772;29;19970;-90
2024/01/09 06:32:30;;;;;;;;;;;-8.10;99.90;;;;;;4941698;29;20263;-90
2024/01/09 06:34:56;;;;;;;;;;;-8.00;99.90;;;;;;4936802;29;19922;-90
2024/01/09 06:37:21;;;;;;;;;;;-8.00;99.90;;;;;;4936694;29;20442;-91
2024/01/09 06:39:47;;;;;;;;;;;-8.00;99.90;;;;;;4921420;29;20302;-90
2024/01/09 06:42:13;;;;;;;;;;;-8.00;99.90;;;;;;4940052;29;20014;-89
2024/01/09 06:44:38;;;;;;;;;;;-8.00;99.90;;;;;;4906902;29;20427;-91
2024/01/09 06:47:04;;;;;;;;;;;-8.10;99.90;;;;;;4940428;29;19918;-91
2024/01/09 06:49:29;;;;;;;;;;;-8.10;99.90;;;;;;4908804;29;20009;-90
2024/01/09 06:52:32;;;;;;;;;;;-8.10;99.90;;;;;;4940804;29;19910;-91
2024/01/09 06:54:58;;;;;;;;;;;-8.20;99.90;;;;;;4926921;29;19915;-90
2024/01/09 06:57:24;;;;;;;;;;;-8.10;99.90;;;;;;4908271;29;19915;-90
2024/01/09 06:59:50;;;;;;;;;;;-8.00;99.90;;;;;;4941001;29;19954;-90
2024/01/09 07:02:16;;;;;;;;;;;-7.90;99.90;;;;;;4911492;29;20537;-91
2024/01/09 07:04:41;;;;;;;;;;;-7.90;99.90;;;;;;4941875;29;19966;-91
2024/01/09 07:07:07;;;;;;;;;;;-7.80;99.90;;;;;;4940181;29;19915;-90
2024/01/09 07:09:33;;;;;;;;;;;-7.80;99.90;;;;;;4908443;29;19911;-90
2024/01/09 07:11:58;;;;;;;;;;;-7.90;99.90;;;;;;4939459;29;19967;-90
2024/01/09 07:14:24;;;;;;;;;;;-7.90;99.90;;;;;;4923865;29;19919;-90
2024/01/09 07:16:49;;;;;;;;;;;-7.90;99.90;;;;;;4939359;29;19918;-90
2024/01/09 07:19:15;;;;;;;;;;;-7.90;99.90;;;;;;4901198;29;19919;-86
2024/01/09 07:22:15;;;;;;;;;;;-7.90;99.90;;;;;;4921096;29;19919;-86
2024/01/09 07:24:40;;;;;;;;;;;-7.90;99.90;;;;;;4911280;29;20388;-86
2024/01/09 07:27:06;;;;;;;;;;;-7.90;99.90;;;;;;4919220;29;20022;-86
2024/01/09 07:33:00;;;;;;;;;;;-7.80;99.90;;;;;;4943431;29;20068;-85
2024/01/09 07:35:26;;;;;;;;;;;-7.80;99.90;;;;;;4938912;29;20678;-86
2024/01/09 07:37:51;;;;;;;;;;;-7.80;99.90;;;;;;4944841;29;20371;-85
2024/01/09 07:40:17;;;;;;;;;;;-7.80;99.90;;;;;;4936706;29;19926;-86
2024/01/09 07:42:43;;;;;;;;;;;-7.80;99.90;;;;;;4938539;29;20050;-86
2024/01/09 07:45:11;;;;;;;;;;;-7.80;99.90;;;;;;4942931;28;20059;-86
2024/01/09 07:47:37;;;;;;;;;;;-7.80;99.90;;;;;;4910398;29;20397;-85
2024/01/09 07:50:03;;;;;;;;;;;-7.80;99.90;;;;;;4937020;29;19914;-85
2024/01/09 07:52:29;;;;;;;;;;;-7.80;99.90;;;;;;4931267;29;19942;-85
2024/01/09 07:54:54;;;;;;;;;;;-7.80;99.90;;;;;;4932560;29;19919;-86
2024/01/09 07:57:22;;;;;;;;;;;-7.80;99.90;;;;;;4934881;29;19922;-86
2024/01/09 07:59:47;;;;;;;;;;;-7.70;99.90;;;;;;4916398;29;20002;-86
2024/01/09 08:02:13;;;;;;;;;;;-7.70;99.90;;;;;;4935111;29;19993;-86
2024/01/09 08:04:39;;;;;;;;;;;-7.70;99.90;;;;;;4929470;29;20594;-86
2024/01/09 08:07:05;;;;;;;;;;;-7.60;99.90;;;;;;4930694;29;19922;-86
2024/01/09 08:09:31;;;;;;;;;;;-7.60;99.90;;;;;;4922988;29;19918;-85
2024/01/09 08:11:56;;;;;;;;;;;-7.70;99.90;;;;;;4915506;29;19914;-86
2024/01/09 08:14:22;;;;;;;;;;;-7.60;99.90;;;;;;4912881;29;19973;-85
2024/01/09 08:16:48;;;;;;;;;;;-7.60;99.90;;;;;;4932825;29;19925;-86
2024/01/09 08:19:14;;;;;;;;;;;-7.50;99.90;;;;;;4919025;29;19919;-86
2024/01/09 08:21:40;;;;;;;;;;;-7.50;99.90;;;;;;4929882;29;19985;-85
2024/01/09 08:24:06;;;;;;;;;;;-7.50;99.90;;;;;;4942955;29;19922;-85
2024/01/09 08:26:31;;;;;;;;;;;-7.50;99.90;;;;;;4940402;29;20352;-86
2024/01/09 08:28:59;;;;;;;;;;;-7.40;99.90;;;;;;4922664;29;19915;-86
2024/01/09 08:31:25;;;;;;;;;;;-7.10;99.90;;;;;;4924128;29;19969;-86
2024/01/09 08:33:50;;;;;;;;;;;-6.70;99.90;;;;;;4919619;29;19927;-86
2024/01/09 08:36:16;;;;;;;;;;;-6.40;99.90;;;;;;4926695;29;20013;-86
2024/01/09 08:38:42;;;;;;;;;;;-6.40;99.90;;;;;;4917139;29;20375;-86
2024/01/09 08:41:10;;;;;;;;;;;-6.60;99.90;;;;;;4918681;29;19915;-85
2024/01/09 08:43:36;;;;;;;;;;;-6.80;99.90;;;;;;4908506;29;19922;-85
2024/01/09 08:46:01;;;;;;;;;;;-6.80;99.90;;;;;;4903272;29;20922;-86
2024/01/09 08:48:27;;;;;;;;;;;-6.90;99.90;;;;;;4921646;29;19919;-86
2024/01/09 08:50:52;;;;;;;;;;;-6.80;99.90;;;;;;4904629;29;19923;-85
2024/01/09 08:53:18;;;;;;;;;;;-6.80;99.90;;;;;;4934725;28;19931;-86
2024/01/09 08:55:44;;;;;;;;;;;-6.80;99.90;;;;;;4924528;29;19926;-86
2024/01/09 08:58:10;;;;;;;;;;;-6.70;99.90;;;;;;4929401;29;19914;-86
2024/01/09 09:00:35;;;;;;;;;;;-6.60;99.90;;;;;;4921929;29;20073;-85
2024/01/09 09:03:01;;;;;;;;;;;-6.60;99.90;;;;;;4914227;29;20260;-85
2024/01/09 09:05:26;;;;;;;;;;;-6.50;99.90;;;;;;4933032;29;19931;-86
2024/01/09 09:07:52;;;;;;;;;;;-6.50;99.90;;;;;;4930449;29;19918;-86
2024/01/09 09:10:17;;;;;;;;;;;-6.40;99.90;;;;;;4918671;29;19961;-85
2024/01/09 09:12:43;;;;;;;;;;;-6.40;99.90;;;;;;4903008;29;19927;-86
2024/01/09 09:15:09;;;;;;;;;;;-6.30;99.90;;;;;;4916097;29;19923;-86
2024/01/09 09:17:34;;;;;;;;;;;-6.20;99.90;;;;;;4921677;29;20108;-85
2024/01/09 09:20:00;;;;;;;;;;;-6.20;99.90;;;;;;4919383;29;19939;-86
2024/01/09 09:22:26;;;;;;;;;;;-6.10;99.90;;;;;;4926060;29;19965;-86
2024/01/09 09:24:53;;;;;;;;;;;-6.10;99.90;;;;;;4935016;29;19918;-85
2024/01/09 09:27:18;;;;;;;;;;;-6.00;99.90;;;;;;4918587;29;19919;-85
2024/01/09 09:29:44;;;;;;;;;;;-6.00;99.90;;;;;;4925445;29;20049;-85
2024/01/09 09:32:10;;;;;;;;;;;-5.90;99.90;;;;;;4949084;29;19922;-86
2024/01/09 09:34:39;;;;;;;;;;;-5.80;99.90;;;;;;4918696;29;19915;-85
2024/01/09 09:37:04;;;;;;;;;;;-5.70;99.90;;;;;;4934385;29;20018;-86
2024/01/09 09:39:30;;;;;;;;;;;-5.70;99.90;;;;;;4902740;29;20009;-85
2024/01/09 09:41:59;;;;;;;;;;;-5.70;99.90;;;;;;4934144;29;19915;-86
2024/01/09 09:44:25;;;;;;;;;;;-5.60;99.90;;;;;;4902923;29;20005;-86
2024/01/09 09:46:51;;;;;;;;;;;-5.50;99.90;;;;;;4943631;29;19914;-85
2024/01/09 09:49:23;;;;;;;;;;;-5.40;99.90;;;;;;4945361;29;19921;-86
2024/01/09 09:51:49;;;;;;;;;;;-5.20;99.90;;;;;;4934239;29;20443;-86
2024/01/09 09:54:15;;;;;;;;;;;-4.90;99.90;;;;;;4934360;29;19995;-86
2024/01/09 09:56:41;;;;;;;;;;;-4.30;99.90;;;;;;4931807;29;19915;-85
2024/01/09 09:59:08;;;;;;;;;;;-3.90;99.90;;;;;;4902366;29;19919;-86
2024/01/09 10:01:34;;;;;;;;;;;-3.50;99.90;;;;;;4934414;29;19922;-83
2024/01/09 10:04:26;;;;;;;;;;;-3.00;99.90;;;;;;4917059;29;19919;-86
2024/01/09 10:06:56;;;;;;;;;;;-2.80;99.50;;;;;;4908817;29;19914;-86
2024/01/09 10:09:21;;;;;;;;;;;-2.50;99.40;;;;;;4933407;29;20646;-86
2024/01/09 10:11:51;;;;;;;;;;;-2.30;97.90;;;;;;4934130;29;19922;-86
2024/01/09 10:14:17;;;;;;;;;;;-2.20;96.40;;;;;;4934928;29;20020;-85
2024/01/09 10:16:49;;;;;;;;;;;-2.00;97.00;;;;;;4902139;29;20156;-86
2024/01/09 10:19:16;;;;;;;;;;;-1.70;96.60;;;;;;4917862;29;19957;-86
2024/01/09 10:21:41;;;;;;;;;;;-1.30;95.30;;;;;;4915950;29;19915;-86
2024/01/09 10:24:07;;;;;;;;;;;-1.70;94.80;;;;;;4922116;29;20339;-87
2024/01/09 10:26:33;;;;;;;;;;;-2.30;94.50;;;;;;4917845;29;19993;-86
2024/01/09 10:28:58;;;;;;;;;;;-2.40;95.30;;;;;;4933266;29;20478;-86
2024/01/09 10:31:24;;;;;;;;;;;-2.30;96.00;;;;;;4903609;29;19922;-86
2024/01/09 10:33:49;;;;;;;;;;;-2.50;95.80;;;;;;4917783;29;19970;-85
2024/01/09 10:36:15;;;;;;;;;;;-2.70;95.30;;;;;;4896537;28;20644;-85
2024/01/09 10:38:41;;;;;;;;;;;-3.00;96.30;;;;;;4933294;29;19923;-86
2024/01/09 10:41:16;;;;;;;;;;;-3.00;97.80;;;;;;4901360;29;20575;-85
2024/01/09 10:43:42;;;;;;;;;;;-3.00;98.30;;;;;;4928510;28;19919;-86
2024/01/09 10:46:22;;;;;;;;;;;-3.20;98.60;;;;;;4916055;29;19922;-86
2024/01/09 10:48:48;;;;;;;;;;;-3.40;98.40;;;;;;4912620;29;20655;-85
2024/01/09 10:51:15;;;;;;;;;;;-3.60;99.60;;;;;;4943410;29;19930;-86
2024/01/09 10:53:41;;;;;;;;;;;-3.60;99.90;;;;;;4913981;29;20092;-86
2024/01/09 10:56:08;;;;;;;;;;;-3.50;99.90;;;;;;4900300;29;19926;-86
2024/01/09 10:58:35;;;;;;;;;;;-3.50;99.90;;;;;;4928761;29;19919;-85
2024/01/09 11:01:01;;;;;;;;;;;-3.70;99.90;;;;;;4922132;29;19919;-86
2024/01/09 11:03:26;;;;;;;;;;;-3.80;99.90;;;;;;4936226;29;19966;-85
2024/01/09 11:05:54;;;;;;;;;;;-3.80;99.90;;;;;;4931279;29;20360;-86
2024/01/09 11:08:20;;;;;;;;;;;-3.70;99.90;;;;;;4938139;29;19919;-85
2024/01/09 11:10:47;;;;;;;;;;;-3.80;99.90;;;;;;4914584;29;19919;-85
2024/01/09 11:13:12;;;;;;;;;;;-3.60;99.90;;;;;;4915888;29;20339;-85
2024/01/09 11:15:44;;;;;;;;;;;-3.20;99.90;;;;;;4916183;29;20001;-86
2024/01/09 11:18:12;;;;;;;;;;;-3.10;98.90;;;;;;4933713;29;19982;-85
2024/01/09 11:20:38;;;;;;;;;;;-3.10;98.70;;;;;;4922712;29;19968;-86
2024/01/09 11:23:04;;;;;;;;;;;-3.10;98.90;;;;;;4930814;28;19964;-86
2024/01/09 11:25:31;;;;;;;;;;;-3.30;99.10;;;;;;4933595;28;19958;-85
2024/01/09 11:27:57;;;;;;;;;;;-3.40;99.50;;;;;;4937804;29;20359;-85
2024/01/09 11:30:26;;;;;;;;;;;-3.40;99.90;;;;;;4920127;29;19934;-86
2024/01/09 11:32:52;;;;;;;;;;;-3.40;99.50;;;;;;4934315;29;19931;-86
2024/01/09 11:35:19;;;;;;;;;;;-3.10;99.00;;;;;;4934531;29;20387;-86
2024/01/09 11:37:46;;;;;;;;;;;-3.00;98.60;;;;;;4914993;29;19925;-86
2024/01/09 11:40:12;;;;;;;;;;;-2.80;99.20;;;;;;4903976;29;19915;-86
2024/01/09 11:42:39;;;;;;;;;;;-2.60;97.70;;;;;;4935340;29;19966;-86
2024/01/09 11:45:09;;;;;;;;;;;-2.50;97.40;;;;;;4903886;29;19925;-86
2024/01/09 11:47:38;;;;;;;;;;;-2.40;97.80;;;;;;4936939;29;19922;-86
2024/01/09 11:50:05;;;;;;;;;;;-2.30;96.40;;;;;;4919783;29;19948;-85
2024/01/09 11:52:31;;;;;;;;;;;-2.30;95.80;;;;;;4935819;29;19923;-85
2024/01/09 11:54:56;;;;;;;;;;;-2.20;96.00;;;;;;4931517;29;20678;-85
2024/01/09 11:57:22;;;;;;;;;;;-2.10;95.70;;;;;;4936300;29;19918;-85
2024/01/09 11:59:48;;;;;;;;;;;-2.20;94.50;;;;;;4935781;29;19911;-85
2024/01/09 12:02:13;;;;;;;;;;;-2.30;95.50;;;;;;4919939;29;19925;-85
2024/01/09 12:04:42;;;;;;;;;;;-2.40;95.90;;;;;;4920513;29;19924;-85
2024/01/09 12:07:08;;;;;;;;;;;-2.50;96.00;;;;;;4919761;29;19927;-85
2024/01/09 12:09:33;;;;;;;;;;;-2.80;96.10;;;;;;4935579;29;20006;-85
2024/01/09 12:11:59;;;;;;;;;;;-3.00;96.50;;;;;;4935057;29;19926;-85
2024/01/09 12:14:24;;;;;;;;;;;-3.10;96.90;;;;;;4904005;29;19923;-85
2024/01/09 12:16:51;;;;;;;;;;;-3.20;98.00;;;;;;4935335;29;19919;-85
2024/01/09 12:19:16;;;;;;;;;;;-3.30;98.50;;;;;;4912979;29;19925;-85
2024/01/09 12:21:42;;;;;;;;;;;-3.30;98.60;;;;;;4937745;29;19968;-85
2024/01/09 12:24:09;;;;;;;;;;;-3.30;99.10;;;;;;4903075;29;19926;-85
2024/01/09 12:26:35;;;;;;;;;;;-3.30;98.00;;;;;;4934764;29;19919;-85
2024/01/09 12:29:02;;;;;;;;;;;-3.30;98.40;;;;;;4930996;28;19981;-86
2024/01/09 12:31:27;;;;;;;;;;;-3.30;98.00;;;;;;4945453;29;19919;-86
2024/01/09 12:33:53;;;;;;;;;;;-3.30;98.50;;;;;;4909886;29;19919;-85
2024/01/09 12:36:19;;;;;;;;;;;-3.30;98.70;;;;;;4927638;29;19918;-85
2024/01/09 12:38:44;;;;;;;;;;;-3.30;99.00;;;;;;4942305;29;19965;-85
2024/01/09 12:41:10;;;;;;;;;;;-3.20;99.10;;;;;;4945638;29;19914;-86
2024/01/09 12:44:01;;;;;;;;;;;-3.20;98.10;;;;;;4924176;29;19923;-85
2024/01/09 12:46:29;;;;;;;;;;;-3.10;97.70;;;;;;4945406;29;19982;-85
2024/01/09 12:48:55;;;;;;;;;;;-3.10;98.70;;;;;;4941717;29;19966;-85
2024/01/09 12:51:35;;;;;;;;;;;-3.10;98.50;;;;;;4945440;28;19923;-85
2024/01/09 12:54:19;;;;;;;;;;;-3.10;98.50;;;;;;4926517;29;20327;-85
2024/01/09 12:56:45;;;;;;;;;;;-3.10;97.80;;;;;;4901695;29;20021;-85
2024/01/09 12:59:11;;;;;;;;;;;-3.10;97.90;;;;;;4940864;29;20681;-85
2024/01/09 13:01:36;;;;;;;;;;;-3.10;98.40;;;;;;4933531;29;20325;-85
2024/01/09 13:04:02;;;;;;;;;;;-3.10;98.30;;;;;;4947576;29;19947;-86
2024/01/09 13:06:27;;;;;;;;;;;-3.10;97.40;;;;;;4944688;29;19922;-85
2024/01/09 13:08:53;;;;;;;;;;;-3.10;97.60;;;;;;4922136;29;19990;-85
2024/01/09 13:11:25;;;;;;;;;;;-3.10;97.00;;;;;;4937524;29;19923;-85
2024/01/09 13:13:50;;;;;;;;;;;-3.10;97.80;;;;;;4926123;29;20306;-85
2024/01/09 13:16:18;;;;;;;;;;;-3.10;97.00;;;;;;4921166;29;19973;-85
2024/01/09 13:18:43;;;;;;;;;;;-3.10;97.90;;;;;;4922545;29;19962;-85
2024/01/09 13:21:09;;;;;;;;;;;-3.10;97.30;;;;;;4918118;29;19919;-85
2024/01/09 13:23:35;;;;;;;;;;;-3.10;98.50;;;;;;4933779;29;20347;-85
2024/01/09 13:26:02;;;;;;;;;;;-3.10;98.40;;;;;;4906733;29;19915;-86
2024/01/09 13:28:28;;;;;;;;;;;-3.10;98.70;;;;;;4905676;29;20718;-85
2024/01/09 13:30:54;;;;;;;;;;;-3.00;97.50;;;;;;4934030;29;19915;-85
2024/01/09 13:33:20;;;;;;;;;;;-3.00;97.60;;;;;;4919961;29;19931;-85
2024/01/09 13:35:45;;;;;;;;;;;-3.00;96.40;;;;;;4941244;29;19970;-85
2024/01/09 13:38:15;;;;;;;;;;;-3.00;96.60;;;;;;4903379;29;20288;-85
2024/01/09 13:40:41;;;;;;;;;;;-3.00;95.20;;;;;;4906408;29;20375;-86
2024/01/09 13:43:06;;;;;;;;;;;-3.00;95.70;;;;;;4916885;29;19970;-85
2024/01/09 13:45:32;;;;;;;;;;;-3.00;96.20;;;;;;4916876;29;19923;-85
2024/01/09 13:47:59;;;;;;;;;;;-2.90;96.10;;;;;;4934109;29;19911;-85
2024/01/09 13:50:25;;;;;;;;;;;-3.00;95.80;;;;;;4933067;29;20314;-85
2024/01/09 13:52:51;;;;;;;;;;;-2.90;95.90;;;;;;4932887;29;19933;-85
2024/01/09 13:55:17;;;;;;;;;;;-2.90;96.80;;;;;;4932702;29;19925;-85
2024/01/09 13:57:43;;;;;;;;;;;-2.90;96.50;;;;;;4915515;29;20270;-85
2024/01/09 14:00:10;;;;;;;;;;;-3.00;96.60;;;;;;4932594;29;20283;-85
2024/01/09 14:02:37;;;;;;;;;;;-3.00;96.50;;;;;;4902230;29;20017;-85
2024/01/09 14:05:04;;;;;;;;;;;-3.00;96.70;;;;;;4929244;29;20563;-85
2024/01/09 14:07:30;;;;;;;;;;;-3.00;96.20;;;;;;4901386;29;19911;-85
2024/01/09 14:09:57;;;;;;;;;;;-3.00;97.30;;;;;;4933230;29;20402;-85
2024/01/09 14:12:22;;;;;;;;;;;-3.00;96.40;;;;;;4917470;29;19970;-85
2024/01/09 14:14:48;;;;;;;;;;;-3.00;96.50;;;;;;4917567;29;20327;-85
2024/01/09 14:17:14;;;;;;;;;;;-3.00;96.00;;;;;;4916601;29;19926;-85